createdAt,value
2019-05-14T00:02:24.688Z,70.40
2019-05-14T00:04:54.832Z,70.20
2019-05-14T00:07:24.980Z,70.20
2019-05-14T00:09:55.772Z,70.90
2019-05-14T00:12:25.622Z,70.30
2019-05-14T00:14:56.291Z,69.70
2019-05-14T00:17:28.492Z,69.50
2019-05-14T00:20:07.385Z,70.10
2019-05-14T00:22:32.002Z,69.60
2019-05-14T00:25:03.236Z,70.60
2019-05-14T00:27:33.275Z,70.90
2019-05-14T00:30:03.321Z,70.90
2019-05-14T00:32:33.203Z,70.60
2019-05-14T00:35:03.754Z,70.70
2019-05-14T00:37:33.783Z,70.90
2019-05-14T00:40:03.691Z,71.10
2019-05-14T00:42:34.079Z,70.70
2019-05-14T00:45:03.986Z,71.00
2019-05-14T00:47:34.219Z,71.00
2019-05-14T00:50:06.009Z,71.00
2019-05-14T00:52:35.702Z,71.30
2019-05-14T00:55:06.298Z,71.30
2019-05-14T00:57:36.004Z,71.60
2019-05-14T01:00:06.599Z,71.60
2019-05-14T01:02:36.525Z,71.50
2019-05-14T01:05:06.667Z,71.80
2019-05-14T01:07:37.111Z,71.50
2019-05-14T01:10:07.544Z,71.30
2019-05-14T01:12:37.690Z,71.60
2019-05-14T01:15:11.581Z,72.10
2019-05-14T01:17:41.991Z,72.00
2019-05-14T01:20:12.364Z,72.10
2019-05-14T01:22:43.515Z,72.00
2019-05-14T01:25:13.773Z,71.80
2019-05-14T01:27:44.675Z,72.30
2019-05-14T01:30:14.622Z,71.80
2019-05-14T01:32:44.426Z,71.80
2019-05-14T01:35:14.599Z,72.00
2019-05-14T01:37:44.735Z,71.80
2019-05-14T01:40:15.018Z,72.00
2019-05-14T01:42:44.719Z,71.90
2019-05-14T01:45:25.162Z,72.20
2019-05-14T01:47:46.867Z,72.30
2019-05-14T01:50:17.796Z,72.40
2019-05-14T01:52:52.079Z,72.20
2019-05-14T01:55:22.703Z,72.10
2019-05-14T01:57:58.423Z,72.20
2019-05-14T02:02:57.950Z,73.20
2019-05-14T02:05:30.942Z,72.40
2019-05-14T02:08:01.541Z,72.50
2019-05-14T02:10:32.202Z,72.70
2019-05-14T02:13:02.179Z,72.80
2019-05-14T02:15:39.133Z,72.70
2019-05-14T02:18:03.793Z,72.70
2019-05-14T02:20:33.676Z,73.10
2019-05-14T02:23:07.509Z,72.90
2019-05-14T02:25:37.377Z,72.90
2019-05-14T02:28:07.609Z,72.90
2019-05-14T02:30:48.052Z,72.70
2019-05-14T02:33:10.599Z,74.10
2019-05-14T02:35:40.640Z,75.50
2019-05-14T02:38:10.526Z,74.00
2019-05-14T02:40:42.330Z,73.60
2019-05-14T02:43:12.244Z,73.60
2019-05-14T02:46:00.406Z,73.10
2019-05-14T02:48:20.111Z,74.20
2019-05-14T02:50:49.995Z,74.50
2019-05-14T02:53:20.125Z,74.30
2019-05-14T02:55:50.310Z,73.90
2019-05-14T02:58:21.170Z,73.70
2019-05-14T03:00:52.290Z,75.40
2019-05-14T03:03:22.499Z,75.30
2019-05-14T03:05:52.588Z,74.60
2019-05-14T03:08:22.259Z,74.30
2019-05-14T03:10:52.164Z,74.30
2019-05-14T03:13:21.947Z,74.00
2019-05-14T03:15:51.792Z,73.90
2019-05-14T03:18:21.470Z,74.10
2019-05-14T03:20:51.911Z,74.00
2019-05-14T03:23:23.034Z,73.90
2019-05-14T03:25:53.199Z,77.20
2019-05-14T03:28:23.472Z,74.80
2019-05-14T03:30:53.549Z,74.20
2019-05-14T03:33:24.024Z,74.80
2019-05-14T03:36:05.626Z,74.10
2019-05-14T03:38:25.587Z,74.20
2019-05-14T03:40:59.784Z,74.60
2019-05-14T03:43:29.572Z,74.30
2019-05-14T03:45:59.704Z,74.80
2019-05-14T03:48:40.389Z,74.50
2019-05-14T03:51:25.664Z,74.30
2019-05-14T03:54:05.707Z,74.20
2019-05-14T03:56:29.827Z,74.40
2019-05-14T03:58:59.881Z,74.20
2019-05-14T04:01:30.397Z,75.80
2019-05-14T04:04:00.557Z,76.80
2019-05-14T04:06:32.460Z,75.00
2019-05-14T04:09:04.805Z,74.80
2019-05-14T04:11:36.080Z,78.10
2019-05-14T04:14:09.715Z,75.50
2019-05-14T04:16:59.876Z,76.20
2019-05-14T04:19:20.083Z,76.20
2019-05-14T04:21:51.049Z,81.00
2019-05-14T04:24:23.424Z,76.20
2019-05-14T04:27:05.944Z,77.20
2019-05-14T04:29:30.615Z,81.90
2019-05-14T04:32:01.411Z,85.80
2019-05-14T04:34:32.650Z,92.20
2019-05-14T04:37:02.389Z,92.30
2019-05-14T04:39:32.174Z,94.20
2019-05-14T04:42:02.355Z,91.40
2019-05-14T04:44:32.242Z,85.50
2019-05-14T04:47:20.218Z,93.50
2019-05-14T04:49:34.582Z,94.80
2019-05-14T04:52:05.495Z,93.90
2019-05-14T04:54:39.110Z,93.70
2019-05-14T04:57:10.204Z,84.30
2019-05-14T04:59:40.022Z,82.30
2019-05-14T05:02:10.228Z,87.50
2019-05-14T05:04:41.615Z,83.90
2019-05-14T05:07:11.355Z,84.40
2019-05-14T05:09:41.462Z,86.50
2019-05-14T05:12:12.122Z,90.10
2019-05-14T05:14:42.717Z,89.60
2019-05-14T05:17:12.234Z,85.00
2019-05-14T05:19:45.646Z,86.30
2019-05-14T05:22:14.357Z,87.10
2019-05-14T05:24:45.438Z,85.80
2019-05-14T05:27:15.545Z,83.30
2019-05-14T05:29:48.939Z,81.60
2019-05-14T05:32:19.564Z,82.50
2019-05-14T05:34:49.629Z,81.30
2019-05-14T05:37:19.345Z,82.50
2019-05-14T05:39:49.643Z,81.50
2019-05-14T05:42:20.136Z,82.20
2019-05-14T05:44:49.959Z,80.70
2019-05-14T05:47:22.565Z,79.50
2019-05-14T05:49:53.434Z,79.10
2019-05-14T05:52:23.354Z,77.70
2019-05-14T05:54:54.893Z,76.20
2019-05-14T05:57:24.651Z,78.20
2019-05-14T05:59:54.818Z,76.60
2019-05-14T06:02:24.768Z,80.10
2019-05-14T06:04:55.030Z,80.30
2019-05-14T06:07:24.587Z,75.90
2019-05-14T06:09:54.479Z,81.50
2019-05-14T06:12:25.074Z,79.20
2019-05-14T06:14:55.328Z,78.00
2019-05-14T06:17:25.459Z,81.30
2019-05-14T06:19:55.920Z,81.20
2019-05-14T06:22:27.903Z,79.90
2019-05-14T06:24:58.722Z,79.50
2019-05-14T06:27:31.354Z,76.70
2019-05-14T06:30:00.921Z,72.50
2019-05-14T06:32:30.747Z,72.90
2019-05-14T06:35:01.040Z,71.40
2019-05-14T06:37:30.755Z,75.00
2019-05-14T06:40:00.557Z,73.70
2019-05-14T06:42:30.656Z,68.50
2019-05-14T06:45:01.070Z,67.20
2019-05-14T06:47:30.851Z,64.40
2019-05-14T06:52:29.151Z,66.70
2019-05-14T06:54:58.819Z,69.30
2019-05-14T06:57:28.738Z,68.50
2019-05-14T06:59:59.097Z,64.40
2019-05-14T07:02:29.191Z,67.10
2019-05-14T07:04:59.160Z,59.90
2019-05-14T07:07:30.260Z,60.40
2019-05-14T07:10:02.497Z,58.10
2019-05-14T07:12:32.718Z,58.30
2019-05-14T07:15:03.066Z,54.40
2019-05-14T07:17:33.703Z,59.20
2019-05-14T07:20:03.411Z,60.90
2019-05-14T07:22:33.151Z,56.60
2019-05-14T07:25:03.008Z,56.40
2019-05-14T07:27:33.119Z,56.20
2019-05-14T07:30:09.146Z,55.70
2019-05-14T07:32:39.518Z,58.30
2019-05-14T07:35:10.011Z,57.10
2019-05-14T07:37:40.602Z,54.50
2019-05-14T07:40:12.809Z,55.90
2019-05-14T07:42:42.524Z,55.00
2019-05-14T07:45:15.489Z,56.10
2019-05-14T07:47:45.716Z,56.30
2019-05-14T07:50:19.743Z,60.60
2019-05-14T07:52:51.352Z,61.30
2019-05-14T07:55:21.704Z,55.90
2019-05-14T07:57:52.206Z,52.60
2019-05-14T08:00:28.528Z,51.50
2019-05-14T08:02:58.676Z,54.10
2019-05-14T08:05:28.853Z,47.70
2019-05-14T08:07:58.781Z,51.40
2019-05-14T08:10:29.031Z,49.60
2019-05-14T08:12:59.627Z,51.70
2019-05-14T08:15:29.939Z,54.30
2019-05-14T08:17:59.948Z,49.70
2019-05-14T08:20:29.788Z,51.60
2019-05-14T08:22:59.519Z,51.70
2019-05-14T08:25:30.137Z,51.80
2019-05-14T08:28:00.546Z,51.10
2019-05-14T08:30:31.482Z,49.40
2019-05-14T08:33:01.375Z,49.20
2019-05-14T08:35:34.201Z,47.30
2019-05-14T08:38:08.218Z,54.00
2019-05-14T08:40:34.605Z,51.30
2019-05-14T08:43:04.836Z,48.50
2019-05-14T08:45:35.219Z,50.20
2019-05-14T08:48:05.079Z,48.20
2019-05-14T08:50:35.581Z,41.90
2019-05-14T08:53:05.660Z,51.40
2019-05-14T08:55:37.599Z,48.30
2019-05-14T08:58:13.377Z,48.10
2019-05-14T09:00:39.001Z,51.50
2019-05-14T09:03:08.830Z,47.10
2019-05-14T09:05:39.245Z,47.40
2019-05-14T09:08:19.283Z,45.10
2019-05-14T09:10:51.253Z,42.90
2019-05-14T09:13:23.712Z,44.20
2019-05-14T09:15:58.069Z,44.10
2019-05-14T09:18:29.122Z,46.50
2019-05-14T09:21:00.031Z,47.20
2019-05-14T09:23:30.108Z,46.00
2019-05-14T09:26:00.110Z,42.80
2019-05-14T09:28:30.133Z,47.50
2019-05-14T09:31:00.074Z,46.00
2019-05-14T09:33:30.287Z,45.50
2019-05-14T09:36:14.935Z,43.80
2019-05-14T09:38:32.367Z,46.90
2019-05-14T09:41:11.316Z,45.30
2019-05-14T09:43:34.740Z,45.50
2019-05-14T09:46:05.708Z,46.50
2019-05-14T09:48:37.840Z,45.90
2019-05-14T09:51:09.269Z,45.60
2019-05-14T09:53:40.131Z,45.80
2019-05-14T09:56:09.963Z,44.30
2019-05-14T09:58:39.718Z,40.70
2019-05-14T10:01:09.498Z,46.60
2019-05-14T10:03:39.711Z,47.70
2019-05-14T10:06:10.303Z,45.10
2019-05-14T10:08:40.581Z,42.00
2019-05-14T10:11:10.937Z,38.00
2019-05-14T10:13:41.795Z,45.40
2019-05-14T10:16:11.798Z,43.70
2019-05-14T10:18:42.137Z,45.60
2019-05-14T10:21:12.399Z,45.90
2019-05-14T10:23:42.191Z,42.60
2019-05-14T10:26:12.062Z,43.80
2019-05-14T10:28:43.623Z,44.00
2019-05-14T10:31:18.109Z,42.90
2019-05-14T10:33:48.494Z,43.00
2019-05-14T10:36:19.410Z,48.00
2019-05-14T10:38:51.341Z,42.60
2019-05-14T10:41:21.961Z,45.30
2019-05-14T10:43:52.454Z,42.70
2019-05-14T10:46:22.972Z,47.60
2019-05-14T10:48:52.947Z,47.20
2019-05-14T10:51:22.977Z,46.80
2019-05-14T10:53:52.971Z,46.20
2019-05-14T10:56:23.317Z,46.40
2019-05-14T10:58:53.190Z,45.50
2019-05-14T11:01:23.792Z,48.90
2019-05-14T11:03:54.054Z,41.30
2019-05-14T11:06:23.782Z,42.50
2019-05-14T11:08:54.077Z,40.80
2019-05-14T11:11:24.040Z,40.30
2019-05-14T11:13:54.301Z,43.20
2019-05-14T11:16:24.437Z,42.80
2019-05-14T11:18:57.397Z,44.50
2019-05-14T11:21:27.521Z,42.20
2019-05-14T11:23:58.536Z,41.90
2019-05-14T11:26:29.497Z,41.10
2019-05-14T11:28:59.894Z,46.00
2019-05-14T11:31:34.114Z,41.70
2019-05-14T11:34:02.233Z,41.90
2019-05-14T11:36:32.552Z,37.80
2019-05-14T11:39:04.039Z,41.40
2019-05-14T11:41:34.099Z,39.90
2019-05-14T11:44:04.079Z,46.20
2019-05-14T11:46:47.850Z,39.80
2019-05-14T11:49:08.745Z,39.80
2019-05-14T11:51:59.442Z,39.50
2019-05-14T11:54:51.153Z,38.90
2019-05-14T11:57:37.858Z,37.40
2019-05-14T12:04:14.336Z,40.80
2019-05-14T12:07:09.372Z,40.60
2019-05-14T12:10:14.263Z,37.40
2019-05-14T12:13:39.912Z,41.80
2019-05-14T12:16:33.500Z,41.00
2019-05-14T12:19:22.515Z,41.00
2019-05-14T12:22:41.286Z,44.20
2019-05-14T12:26:02.319Z,41.80
2019-05-14T12:29:22.358Z,42.50
2019-05-14T12:32:18.903Z,42.60
2019-05-14T12:35:09.347Z,40.60
2019-05-14T12:38:02.324Z,42.90
2019-05-14T12:40:41.196Z,45.90
2019-05-14T12:43:39.339Z,42.10
2019-05-14T12:46:40.350Z,42.70
2019-05-14T12:49:39.370Z,41.10
2019-05-14T12:52:38.670Z,40.80
2019-05-14T12:55:31.213Z,43.30
2019-05-14T12:58:31.588Z,40.80
2019-05-14T13:01:27.177Z,40.60
2019-05-14T13:04:44.463Z,40.00
2019-05-14T13:07:58.988Z,40.00
2019-05-14T13:11:04.933Z,40.70
2019-05-14T13:14:07.429Z,43.10
2019-05-14T13:17:18.862Z,44.10
2019-05-14T13:20:19.830Z,45.30
2019-05-14T13:23:32.089Z,40.50
2019-05-14T13:26:29.417Z,43.10
2019-05-14T13:33:00.793Z,43.60
2019-05-14T13:36:06.844Z,45.50
2019-05-14T13:39:08.963Z,42.00
2019-05-14T13:45:29.773Z,40.10
2019-05-14T13:48:30.021Z,45.10
2019-05-14T13:51:23.160Z,40.40
2019-05-14T13:57:31.761Z,44.80
2019-05-14T14:00:51.606Z,42.90
2019-05-14T14:04:06.213Z,41.70
2019-05-14T14:06:58.946Z,42.70
2019-05-14T14:10:09.014Z,37.20
2019-05-14T14:13:11.531Z,43.70
2019-05-14T14:16:03.167Z,40.20
2019-05-14T14:19:13.530Z,47.50
2019-05-14T14:22:09.923Z,45.00
2019-05-14T14:25:19.510Z,41.30
2019-05-14T14:31:11.054Z,42.60
2019-05-14T14:34:25.403Z,45.70
2019-05-14T14:37:19.591Z,42.10
2019-05-14T14:40:22.916Z,45.30
2019-05-14T14:43:18.553Z,41.50
2019-05-14T14:46:20.551Z,41.20
2019-05-14T14:49:24.718Z,44.30
2019-05-14T14:52:12.139Z,45.30
2019-05-14T14:54:59.089Z,45.20
2019-05-14T14:57:54.007Z,44.80
2019-05-14T15:00:45.561Z,42.00
2019-05-14T15:03:43.227Z,45.60
2019-05-14T15:06:50.867Z,43.70
2019-05-14T15:09:50.113Z,45.40
2019-05-14T15:12:45.830Z,43.90
2019-05-14T15:15:49.546Z,44.70
2019-05-14T15:18:34.452Z,47.10
2019-05-14T15:21:41.327Z,49.70
2019-05-14T15:24:33.614Z,52.40
2019-05-14T15:27:23.574Z,53.10
2019-05-14T15:30:23.809Z,56.10
2019-05-14T15:32:53.577Z,58.30
2019-05-14T15:35:23.446Z,53.00
2019-05-14T15:37:53.600Z,53.40
2019-05-14T15:40:23.513Z,55.60
2019-05-14T15:42:54.157Z,56.20
2019-05-14T15:45:24.444Z,57.10
2019-05-14T15:47:54.499Z,54.90
2019-05-14T15:50:24.735Z,55.40
2019-05-14T15:52:54.892Z,56.90
2019-05-14T15:55:24.841Z,61.50
2019-05-14T15:57:54.751Z,60.00
2019-05-14T16:00:25.169Z,59.70
2019-05-14T16:02:55.404Z,61.20
2019-05-14T16:05:25.373Z,61.00
2019-05-14T16:07:55.803Z,60.80
2019-05-14T16:10:30.531Z,59.30
2019-05-14T16:12:59.550Z,61.30
2019-05-14T16:15:32.981Z,60.00
2019-05-14T16:18:09.642Z,57.90
2019-05-14T16:20:38.986Z,55.90
2019-05-14T16:23:10.902Z,58.30
2019-05-14T16:25:39.665Z,59.10
2019-05-14T16:28:09.854Z,55.60
2019-05-14T16:30:39.886Z,59.30
2019-05-14T16:33:10.160Z,54.80
2019-05-14T16:35:40.907Z,59.80
2019-05-14T16:38:13.693Z,58.60
2019-05-14T16:40:44.547Z,58.60
2019-05-14T16:43:14.566Z,59.20
2019-05-14T16:45:44.745Z,59.80
2019-05-14T16:48:15.015Z,57.00
2019-05-14T16:50:44.825Z,57.60
2019-05-14T16:53:15.196Z,55.00
2019-05-14T16:55:45.842Z,59.10
2019-05-14T16:58:19.471Z,58.50
2019-05-14T17:00:48.089Z,60.50
2019-05-14T17:03:19.091Z,60.00
2019-05-14T17:05:49.674Z,60.90
2019-05-14T17:08:19.565Z,60.00
2019-05-14T17:10:49.281Z,60.00
2019-05-14T17:13:20.714Z,61.20
2019-05-14T17:15:50.558Z,61.00
2019-05-14T17:18:20.561Z,58.50
2019-05-14T17:20:50.442Z,60.40
2019-05-14T17:23:20.537Z,62.70
2019-05-14T17:25:50.703Z,64.10
2019-05-14T17:28:21.465Z,58.40
2019-05-14T17:30:56.385Z,57.40
2019-05-14T17:33:29.027Z,59.40
2019-05-14T17:35:58.634Z,59.10
2019-05-14T17:38:29.147Z,56.40
2019-05-14T17:40:59.866Z,58.50
2019-05-14T17:43:32.618Z,57.20
2019-05-14T17:46:02.765Z,60.70
2019-05-14T17:48:32.652Z,57.60
2019-05-14T17:51:06.056Z,61.60
2019-05-14T17:53:38.383Z,61.20
2019-05-14T17:56:08.843Z,62.90
2019-05-14T17:58:38.636Z,60.70
2019-05-14T18:01:09.165Z,55.30
2019-05-14T18:03:40.003Z,54.60
2019-05-14T18:06:10.789Z,60.40
2019-05-14T18:08:40.900Z,58.10
2019-05-14T18:11:10.956Z,53.60
2019-05-14T18:13:40.937Z,55.90
2019-05-14T18:16:10.798Z,55.10
2019-05-14T18:18:45.753Z,57.00
2019-05-14T18:21:19.364Z,57.00
2019-05-14T18:24:12.452Z,57.50
2019-05-14T18:26:42.098Z,60.90
2019-05-14T18:29:12.092Z,59.20
2019-05-14T18:31:44.529Z,60.20
2019-05-14T18:34:13.029Z,63.60
2019-05-14T18:36:48.904Z,59.00
2019-05-14T18:39:20.882Z,61.40
2019-05-14T18:41:50.259Z,61.40
2019-05-14T18:44:19.979Z,62.80
2019-05-14T18:46:49.945Z,60.90
2019-05-14T18:49:20.284Z,62.60
2019-05-14T18:51:50.440Z,59.00
2019-05-14T18:54:20.593Z,61.50
2019-05-14T18:56:50.785Z,63.80
2019-05-14T18:59:21.691Z,61.40
2019-05-14T19:01:53.798Z,62.20
2019-05-14T19:04:23.410Z,65.50
2019-05-14T19:06:53.381Z,65.90
2019-05-14T19:09:23.168Z,66.50
2019-05-14T19:11:52.887Z,65.20
2019-05-14T19:14:23.376Z,63.90
2019-05-14T19:16:53.135Z,61.30
2019-05-14T19:19:23.147Z,64.20
2019-05-14T19:21:53.586Z,61.00
2019-05-14T19:24:23.250Z,62.20
2019-05-14T19:26:53.453Z,59.30
2019-05-14T19:29:23.310Z,64.40
2019-05-14T19:31:54.085Z,63.30
2019-05-14T19:34:24.256Z,66.10
2019-05-14T19:36:53.920Z,63.90
2019-05-14T19:39:25.442Z,64.30
2019-05-14T19:41:55.159Z,60.90
2019-05-14T19:44:25.383Z,59.50
2019-05-14T19:46:55.559Z,60.40
2019-05-14T19:49:26.057Z,59.30
2019-05-14T19:51:58.708Z,59.10
2019-05-14T19:54:29.182Z,59.70
2019-05-14T19:57:01.036Z,58.80
2019-05-14T19:59:31.423Z,58.90
2019-05-14T20:02:01.512Z,58.80
2019-05-14T20:04:31.928Z,58.30
2019-05-14T20:07:01.812Z,58.50
2019-05-14T20:09:31.580Z,58.50
2019-05-14T20:12:01.519Z,58.50
2019-05-14T20:14:31.575Z,58.90
2019-05-14T20:17:02.398Z,59.10
2019-05-14T20:19:32.437Z,59.20
2019-05-14T20:22:02.375Z,59.00
2019-05-14T20:24:32.173Z,59.20
2019-05-14T20:27:07.836Z,58.90
2019-05-14T20:29:33.921Z,59.00
2019-05-14T20:32:03.652Z,59.80
2019-05-14T20:34:33.580Z,59.50
2019-05-14T20:37:04.196Z,59.90
2019-05-14T20:39:34.364Z,59.90
2019-05-14T20:42:04.161Z,59.90
2019-05-14T20:44:34.513Z,59.90
2019-05-14T20:47:04.598Z,60.00
2019-05-14T20:49:34.971Z,60.10
2019-05-14T20:52:04.666Z,60.30
2019-05-14T20:54:34.538Z,60.60
2019-05-14T20:57:04.343Z,60.90
2019-05-14T20:59:35.597Z,60.90
2019-05-14T21:02:07.850Z,61.30
2019-05-14T21:04:41.426Z,61.40
2019-05-14T21:07:11.202Z,61.80
2019-05-14T21:09:41.024Z,62.20
2019-05-14T21:12:10.872Z,61.80
2019-05-14T21:14:41.393Z,62.00
2019-05-14T21:17:11.441Z,62.10
2019-05-14T21:19:42.016Z,62.00
2019-05-14T21:22:11.745Z,62.40
2019-05-14T21:24:41.885Z,62.40
2019-05-14T21:27:12.164Z,62.60
2019-05-14T21:29:42.270Z,62.90
2019-05-14T21:32:15.847Z,62.70
2019-05-14T21:34:45.870Z,62.90
2019-05-14T21:37:18.808Z,62.50
2019-05-14T21:39:49.053Z,62.90
2019-05-14T21:42:19.716Z,63.00
2019-05-14T21:44:51.614Z,63.20
2019-05-14T21:47:20.797Z,63.20
2019-05-14T21:49:51.225Z,63.40
2019-05-14T21:52:21.059Z,63.10
2019-05-14T21:54:50.942Z,63.50
2019-05-14T21:57:21.815Z,63.00
2019-05-14T21:59:56.271Z,63.60
2019-05-14T22:02:28.281Z,63.70
2019-05-14T22:04:58.245Z,63.80
2019-05-14T22:07:29.273Z,64.00
2019-05-14T22:09:59.458Z,63.60
2019-05-14T22:12:29.240Z,63.70
2019-05-14T22:14:59.183Z,63.80
2019-05-14T22:17:28.778Z,64.20
2019-05-14T22:19:58.603Z,64.30
2019-05-14T22:22:30.885Z,64.80
2019-05-14T22:25:00.015Z,64.60
2019-05-14T22:27:29.974Z,64.70
2019-05-14T22:30:00.057Z,64.70
2019-05-14T22:32:30.383Z,64.40
2019-05-14T22:35:00.350Z,64.90
2019-05-14T22:37:30.237Z,65.10
2019-05-14T22:40:00.374Z,65.10
2019-05-14T22:42:30.263Z,65.00
2019-05-14T22:47:29.650Z,65.30
2019-05-14T22:49:59.410Z,65.50
2019-05-14T22:52:31.213Z,65.30
2019-05-14T22:55:11.067Z,65.40
2019-05-14T22:57:42.660Z,65.60
2019-05-14T23:00:13.650Z,65.40
2019-05-14T23:02:43.414Z,65.70
2019-05-14T23:05:13.352Z,65.50
2019-05-14T23:07:43.199Z,65.70
2019-05-14T23:10:13.265Z,65.90
2019-05-14T23:12:43.054Z,65.80
2019-05-14T23:15:13.060Z,65.80
2019-05-14T23:17:43.136Z,65.60
2019-05-14T23:20:13.316Z,65.90
2019-05-14T23:22:44.074Z,66.00
2019-05-14T23:25:14.387Z,66.30
2019-05-14T23:27:44.604Z,66.50
2019-05-14T23:30:20.001Z,66.00
2019-05-14T23:32:49.927Z,66.00
2019-05-14T23:35:19.871Z,65.80
2019-05-14T23:37:49.883Z,66.40
2019-05-14T23:40:19.662Z,66.10
2019-05-14T23:42:49.317Z,66.70
2019-05-14T23:45:19.237Z,66.40
2019-05-14T23:47:49.775Z,66.70
2019-05-14T23:50:19.580Z,67.00
2019-05-14T23:52:50.104Z,66.80
2019-05-14T23:55:20.354Z,66.70
2019-05-14T23:57:50.243Z,66.90
